Time;durP1;ratioP1;P1;durP2;ratioP2;P2;SDS_P1;SDS_P2;PMS_P1;PMS_P2;Temp;Humidity;BMP_temperature;BMP_pressure;BME280_temperature;BME280_humidity;BME280_pressure;Samples;Min_cycle;Max_cycle;Signal;HPM_P1;HPM_P2
2022/06/01 00:01:50;;;;;;;11.07;9.73;;;;;;;10.14;79.71;101261.06;5043001;28;20469;-74
2022/06/01 00:04:16;;;;;;;12.88;10.02;;;;;;;10.14;79.64;101261.06;5060823;28;20017;-74
2022/06/01 00:06:41;;;;;;;14.27;11.57;;;;;;;10.13;79.54;101262.78;5045082;28;20475;-74
2022/06/01 00:09:07;;;;;;;11.55;10.02;;;;;;;10.12;79.47;101266.25;5046872;28;20033;-74
2022/06/01 00:11:32;;;;;;;11.20;10.00;;;;;;;10.11;79.13;101261.09;5042518;28;20041;-74
2022/06/01 00:13:58;;;;;;;12.98;10.25;;;;;;;10.08;78.93;101261.16;5044032;28;20199;-74
2022/06/01 00:16:23;;;;;;;11.85;10.43;;;;;;;10.05;78.96;101262.06;5049626;28;20047;-74
2022/06/01 00:18:48;;;;;;;12.73;10.40;;;;;;;10.03;78.98;101266.44;5048007;28;20047;-74
2022/06/01 00:21:14;;;;;;;13.70;10.48;;;;;;;10.01;79.26;101268.19;5042267;28;20036;-74
2022/06/01 00:23:39;;;;;;;13.50;10.50;;;;;;;10.00;79.04;101269.06;5043144;28;20029;-74
2022/06/01 00:26:04;;;;;;;13.02;11.40;;;;;;;9.99;79.27;101272.56;5045699;28;20064;-74
2022/06/01 00:28:30;;;;;;;12.43;10.45;;;;;;;9.99;79.62;101273.41;5047394;28;20490;-74
2022/06/01 00:30:55;;;;;;;12.27;10.75;;;;;;;9.98;79.33;101265.63;5044391;28;20053;-74
2022/06/01 00:33:21;;;;;;;12.32;10.70;;;;;;;9.98;79.38;101269.09;5047808;28;20021;-74
2022/06/01 00:35:47;;;;;;;12.60;10.75;;;;;;;9.97;79.38;101263.91;5045328;28;20036;-74
2022/06/01 00:38:12;;;;;;;12.10;10.77;;;;;;;9.97;79.49;101270.00;5045548;28;20028;-74
2022/06/01 00:40:39;;;;;;;14.55;11.38;;;;;;;9.98;78.95;101276.03;5046857;28;20496;-74
2022/06/01 00:43:19;;;;;;;14.05;11.43;;;;;;;9.98;78.65;101276.03;5046562;28;20051;-74
2022/06/01 00:45:44;;;;;;;12.82;11.27;;;;;;;9.97;78.87;101272.59;5046510;28;20036;-74
2022/06/01 00:48:09;;;;;;;14.90;11.75;;;;;;;9.98;79.01;101270.84;5043507;28;20021;-74
2022/06/01 00:50:39;;;;;;;13.45;11.48;;;;;;;9.98;79.04;101276.03;5043022;28;20098;-74
2022/06/01 00:53:10;;;;;;;13.05;11.43;;;;;;;9.96;79.19;101270.00;5046434;28;20049;-73
2022/06/01 00:55:42;;;;;;;13.48;12.00;;;;;;;9.95;79.38;101270.88;5043998;28;20035;-74
2022/06/01 00:58:14;;;;;;;14.48;12.05;;;;;;;9.94;79.40;101270.03;5046071;28;20028;-73
2022/06/01 01:00:41;;;;;;;13.85;11.38;;;;;;;9.94;79.16;101269.16;5046684;28;20063;-74
2022/06/01 01:03:10;;;;;;;13.60;11.93;;;;;;;9.91;79.04;101267.47;5046058;28;20105;-73
2022/06/01 01:05:39;;;;;;;14.65;12.18;;;;;;;9.90;79.28;101270.13;5044417;28;20071;-74
2022/06/01 01:08:05;;;;;;;14.60;12.35;;;;;;;9.86;79.43;101270.16;5042737;28;20028;-74
2022/06/01 01:10:31;;;;;;;13.70;11.63;;;;;;;9.85;79.40;101265.84;5045945;28;20075;-73
2022/06/01 01:12:58;;;;;;;14.52;12.57;;;;;;;9.83;79.34;101275.41;5044239;28;20025;-74
2022/06/01 01:15:35;;;;;;;14.00;12.23;;;;;;;9.82;79.36;101270.25;5041487;28;20033;-74
2022/06/01 01:18:06;;;;;;;13.13;11.73;;;;;;;9.81;79.44;101265.94;5051088;28;20071;-74
2022/06/01 01:20:33;;;;;;;14.32;12.40;;;;;;;9.80;79.33;101261.59;5047560;28;20496;-73
2022/06/01 01:23:23;;;;;;;14.38;12.45;;;;;;;9.78;78.86;101264.22;5043841;28;20123;-74
2022/06/01 01:25:49;;;;;;;14.80;12.55;;;;;;;9.76;79.11;101260.78;5045892;28;20098;-74
2022/06/01 01:28:14;;;;;;;15.00;12.10;;;;;;;9.76;79.34;101255.56;5044337;28;20032;-73
2022/06/01 01:30:50;;;;;;;15.50;12.98;;;;;;;9.76;79.56;101260.78;5045465;28;20033;-74
2022/06/01 01:33:22;;;;;;;15.32;12.77;;;;;;;9.75;79.53;101263.41;5042934;28;20056;-74
2022/06/01 01:35:54;;;;;;;14.93;12.77;;;;;;;9.76;79.81;101259.94;5044321;28;20029;-74
2022/06/01 01:38:46;;;;;;;14.88;12.63;;;;;;;9.78;79.81;101252.97;5043792;28;20029;-73
2022/06/01 01:41:19;;;;;;;16.83;12.80;;;;;;;9.81;79.45;101258.13;5046551;28;20116;-74
2022/06/01 01:43:51;;;;;;;16.80;12.75;;;;;;;9.82;80.09;101252.06;5046834;28;20032;-74
2022/06/01 01:46:16;;;;;;;16.33;12.90;;;;;;;9.83;80.03;101254.63;5045989;28;20031;-74
2022/06/01 01:48:42;;;;;;;15.07;13.20;;;;;;;9.86;79.86;101253.69;5048192;28;20116;-74
2022/06/01 01:51:07;;;;;;;16.13;13.20;;;;;;;9.86;80.04;101259.75;5044496;28;20098;-74
2022/06/01 01:53:33;;;;;;;15.48;13.07;;;;;;;9.88;80.13;101254.53;5043994;28;20078;-74
2022/06/01 01:56:24;;;;;;;16.00;13.63;;;;;;;9.90;80.18;101257.13;5046106;28;20051;-73
2022/06/01 01:59:17;;;;;;;18.17;13.98;;;;;;;9.91;80.04;101258.81;5044712;28;20021;-73
2022/06/01 02:01:54;;;;;;;15.95;13.68;;;;;;;9.92;80.07;101255.34;5045554;28;20075;-74
2022/06/01 02:07:22;;;;;;;16.00;13.77;;;;;;;9.93;80.02;101260.53;5048098;28;20093;-73
2022/06/01 02:12:43;;;;;;;15.90;12.75;;;;;;;9.95;79.99;101263.09;5049922;28;20127;-74
2022/06/01 02:15:25;;;;;;;15.20;12.73;;;;;;;9.95;80.46;101270.88;5046149;28;20021;-73
2022/06/01 02:17:54;;;;;;;15.07;12.45;;;;;;;9.93;80.49;101273.50;5043833;28;20031;-74
2022/06/01 02:20:27;;;;;;;16.92;14.02;;;;;;;9.90;80.52;101263.16;5045796;28;20029;-74
2022/06/01 02:22:54;;;;;;;16.52;13.23;;;;;;;9.89;80.60;101265.81;5045468;28;20028;-74
2022/06/01 02:25:20;;;;;;;19.10;14.57;;;;;;;9.89;80.75;101265.81;5050010;28;20044;-74
2022/06/01 02:27:48;;;;;;;17.23;14.68;;;;;;;9.87;81.17;101266.69;5051106;28;20055;-74
2022/06/01 02:30:13;;;;;;;18.73;14.80;;;;;;;9.87;81.06;101264.09;5051215;28;20074;-74
2022/06/01 02:32:41;;;;;;;17.50;14.68;;;;;;;9.89;81.06;101263.19;5050053;28;20070;-74
2022/06/01 02:35:09;;;;;;;18.05;15.60;;;;;;;9.90;80.99;101262.31;5049449;28;20150;-73
2022/06/01 02:37:39;;;;;;;19.13;15.52;;;;;;;9.93;80.95;101268.31;5048308;28;20037;-74
2022/06/01 02:40:08;;;;;;;18.50;15.20;;;;;;;9.93;80.67;101262.25;5048672;28;20384;-74
2022/06/01 02:42:33;;;;;;;19.00;15.30;;;;;;;9.95;80.71;101260.47;5047353;28;20033;-74
2022/06/01 02:45:05;;;;;;;20.35;15.30;;;;;;;9.96;80.68;101263.06;5047596;28;20021;-73
2022/06/01 02:47:33;;;;;;;18.15;15.32;;;;;;;9.96;80.54;101262.19;5048416;28;20403;-73
2022/06/01 02:50:00;;;;;;;17.98;15.02;;;;;;;9.96;80.40;101260.47;5049887;28;20032;-74
2022/06/01 02:52:27;;;;;;;19.23;15.70;;;;;;;9.96;80.41;101265.69;5050511;28;20033;-74
2022/06/01 02:54:52;;;;;;;19.83;16.08;;;;;;;9.95;80.25;101258.75;5049099;28;20029;-73
2022/06/01 02:57:18;;;;;;;19.63;15.85;;;;;;;9.95;80.35;101261.34;5042013;28;20028;-74
2022/06/01 02:59:44;;;;;;;19.90;16.15;;;;;;;9.94;80.46;101263.97;5045054;28;20024;-73
2022/06/01 03:02:10;;;;;;;18.95;15.60;;;;;;;9.91;80.41;101262.28;5047429;28;20071;-73
2022/06/01 03:04:37;;;;;;;20.67;16.23;;;;;;;9.87;80.26;101261.47;5051960;28;20368;-74
2022/06/01 03:07:03;;;;;;;21.45;16.45;;;;;;;9.86;80.26;101261.50;5051171;28;20037;-74
2022/06/01 03:09:29;;;;;;;20.40;16.13;;;;;;;9.83;80.07;101257.22;5048627;28;20025;-73
2022/06/01 03:11:55;;;;;;;21.98;16.38;;;;;;;9.80;80.05;101254.66;5048327;28;20032;-74
2022/06/01 03:14:21;;;;;;;19.90;16.20;;;;;;;9.78;79.84;101264.22;5049890;28;20384;-73
2022/06/01 03:16:46;;;;;;;19.30;15.20;;;;;;;9.76;79.65;101259.94;5047268;28;20465;-74
2022/06/01 03:19:11;;;;;;;18.98;15.80;;;;;;;9.72;79.69;101259.13;5049356;28;20376;-73
2022/06/01 03:21:37;;;;;;;19.20;15.63;;;;;;;9.70;79.53;101260.88;5049695;28;20029;-73
2022/06/01 03:24:05;;;;;;;22.63;16.88;;;;;;;9.68;79.84;101265.25;5052264;28;20065;-74
2022/06/01 03:26:30;;;;;;;20.40;15.95;;;;;;;9.68;79.75;101267.84;5052901;28;20167;-73
2022/06/01 03:28:56;;;;;;;19.48;15.52;;;;;;;9.64;79.63;101256.66;5051208;28;20478;-73
2022/06/01 03:31:22;;;;;;;20.30;15.73;;;;;;;9.63;79.71;101259.25;5050532;28;20451;-73
2022/06/01 03:33:47;;;;;;;21.17;15.80;;;;;;;9.62;79.59;101267.94;5050680;28;20017;-73
2022/06/01 03:36:12;;;;;;;20.55;15.30;;;;;;;9.59;79.59;101260.16;5051584;28;20021;-74
2022/06/01 03:38:38;;;;;;;21.52;15.52;;;;;;;9.56;79.58;101261.94;5049585;28;20068;-74
2022/06/01 03:41:03;;;;;;;19.95;15.65;;;;;;;9.54;79.57;101266.31;5051896;28;20025;-73
2022/06/01 03:43:29;;;;;;;18.50;14.93;;;;;;;9.51;79.56;101271.56;5050499;28;20423;-73
2022/06/01 03:45:58;;;;;;;20.35;14.90;;;;;;;9.51;79.43;101274.16;5049868;28;20035;-73
2022/06/01 03:48:28;;;;;;;19.52;15.30;;;;;;;9.48;79.18;101271.59;5051220;28;20017;-74
2022/06/01 03:50:55;;;;;;;19.08;15.00;;;;;;;9.47;79.37;101269.88;5049937;28;20372;-73
2022/06/01 03:53:23;;;;;;;20.25;14.88;;;;;;;9.49;79.01;101275.03;5048509;28;20040;-73
2022/06/01 03:55:48;;;;;;;18.77;14.52;;;;;;;9.49;79.27;101270.72;5050299;28;20027;-74
2022/06/01 03:58:16;;;;;;;19.42;14.80;;;;;;;9.49;79.35;101268.13;5052695;28;20025;-73
2022/06/01 04:00:42;;;;;;;19.25;14.07;;;;;;;9.49;79.46;101272.44;5051162;28;20139;-74
2022/06/01 04:03:07;;;;;;;18.75;14.45;;;;;;;9.49;78.90;101275.91;5049532;28;20495;-74
2022/06/01 04:05:33;;;;;;;18.58;14.50;;;;;;;9.50;79.14;101280.22;5051252;28;20037;-73
2022/06/01 04:07:58;;;;;;;17.33;13.68;;;;;;;9.53;78.81;101281.91;5051537;28;20048;-73
2022/06/01 04:10:23;;;;;;;17.40;13.35;;;;;;;9.55;79.11;101278.44;5048548;28;20361;-74
2022/06/01 04:12:49;;;;;;;19.08;13.63;;;;;;;9.55;79.00;101286.22;5050153;28;20029;-73
2022/06/01 04:15:14;;;;;;;17.13;13.07;;;;;;;9.56;78.97;101285.31;5046746;28;20487;-73
2022/06/01 04:17:40;;;;;;;17.15;13.70;;;;;;;9.55;78.95;101282.75;5048677;28;20032;-73
2022/06/01 04:20:07;;;;;;;17.67;13.25;;;;;;;9.57;79.01;101292.22;5048800;28;20028;-73
2022/06/01 04:22:34;;;;;;;16.88;13.38;;;;;;;9.60;79.02;101285.28;5051487;28;20025;-73
2022/06/01 04:24:59;;;;;;;18.65;13.15;;;;;;;9.61;79.17;101284.38;5050239;28;20536;-73
2022/06/01 04:27:25;;;;;;;19.48;13.38;;;;;;;9.61;79.36;101282.66;5047424;28;20027;-73
2022/06/01 04:29:50;;;;;;;18.50;13.05;;;;;;;9.64;78.93;101279.16;5048174;28;20024;-73
2022/06/01 04:32:26;;;;;;;25.90;12.90;;;;;;;9.66;78.59;101286.03;5043976;28;20064;-73
2022/06/01 04:34:51;;;;;;;17.27;12.82;;;;;;;9.66;78.33;101280.84;5043886;28;20029;-73
2022/06/01 04:37:17;;;;;;;17.52;12.68;;;;;;;9.67;78.58;101279.13;5047446;28;20036;-73
2022/06/01 04:39:42;;;;;;;16.67;12.57;;;;;;;9.68;78.50;101280.84;5045519;28;20524;-74
2022/06/01 04:42:08;;;;;;;17.75;12.50;;;;;;;9.69;78.34;101285.16;5047703;28;20479;-74
2022/06/01 04:44:34;;;;;;;19.50;12.52;;;;;;;9.71;78.45;101283.41;5044048;28;20037;-73
2022/06/01 04:46:59;;;;;;;16.67;12.38;;;;;;;9.73;78.51;101286.84;5042927;28;20067;-74
2022/06/01 04:49:24;;;;;;;16.92;12.65;;;;;;;9.77;78.26;101285.03;5050086;28;20090;-73
2022/06/01 04:51:50;;;;;;;17.52;11.98;;;;;;;9.77;78.14;101285.88;5048834;28;20033;-74
2022/06/01 04:54:15;;;;;;;15.23;11.57;;;;;;;9.75;78.24;101285.03;5043621;28;20033;-74
2022/06/01 04:56:41;;;;;;;17.02;12.23;;;;;;;9.72;78.12;101283.34;5045214;28;20060;-74
2022/06/01 04:59:06;;;;;;;15.43;11.45;;;;;;;9.72;77.87;101285.94;5044940;28;20025;-74
2022/06/01 05:01:31;;;;;;;17.23;11.93;;;;;;;9.72;78.26;101291.16;5040875;28;20032;-74
2022/06/01 05:03:56;;;;;;;18.70;11.85;;;;;;;9.73;78.28;101292.03;5043928;28;20387;-74
2022/06/01 05:06:22;;;;;;;16.33;11.82;;;;;;;9.75;78.47;101287.63;5047907;28;20488;-74
2022/06/01 05:08:48;;;;;;;18.02;12.38;;;;;;;9.75;78.45;101287.63;5050960;28;20457;-74
2022/06/01 05:11:13;;;;;;;16.05;11.38;;;;;;;9.76;78.79;101291.97;5051625;28;20047;-74
2022/06/01 05:13:38;;;;;;;18.77;11.75;;;;;;;9.76;78.62;101288.50;5049637;28;20028;-73
2022/06/01 05:16:06;;;;;;;17.60;11.85;;;;;;;9.77;78.66;101292.84;5051695;28;20562;-75
2022/06/01 05:18:31;;;;;;;15.15;11.35;;;;;;;9.78;79.02;101290.19;5049612;28;20028;-74
2022/06/01 05:20:57;;;;;;;15.52;11.57;;;;;;;9.84;78.99;101292.72;5052404;28;20028;-74
2022/06/01 05:23:23;;;;;;;15.43;11.90;;;;;;;9.85;79.10;101291.84;5049691;28;20024;-74
2022/06/01 05:25:50;;;;;;;16.08;12.02;;;;;;;9.87;79.46;101295.28;5052118;28;20090;-74
2022/06/01 05:28:18;;;;;;;17.02;12.05;;;;;;;9.91;79.36;101290.00;5051613;28;20028;-74
2022/06/01 05:30:44;;;;;;;16.23;11.70;;;;;;;9.95;79.80;101289.06;5051648;28;20369;-75
2022/06/01 05:33:09;;;;;;;19.77;12.50;;;;;;;9.97;79.88;101285.59;5049892;28;20063;-74
2022/06/01 05:35:34;;;;;;;15.38;10.93;;;;;;;9.99;79.37;101283.78;5050205;28;20115;-74
2022/06/01 05:38:01;;;;;;;17.65;11.25;;;;;;;10.04;80.09;101286.34;5051895;28;20119;-74
2022/06/01 05:40:30;;;;;;;18.65;12.57;;;;;;;10.07;79.91;101293.22;5051362;28;20118;-74
2022/06/01 05:42:55;;;;;;;16.77;11.82;;;;;;;10.10;80.09;101291.41;5047315;28;20067;-74
2022/06/01 05:45:20;;;;;;;17.90;12.50;;;;;;;10.13;80.11;101296.56;5051683;28;20059;-74
2022/06/01 05:47:46;;;;;;;14.98;11.30;;;;;;;10.15;80.16;101294.81;5049387;28;20040;-75
2022/06/01 05:50:11;;;;;;;18.50;11.65;;;;;;;10.20;80.33;101292.13;5050075;28;20025;-74
2022/06/01 05:52:38;;;;;;;17.30;11.80;;;;;;;10.25;80.35;101302.44;5051152;28;20056;-74
2022/06/01 05:55:08;;;;;;;18.25;11.23;;;;;;;10.30;80.14;101303.22;5051386;28;20484;-74
2022/06/01 05:57:34;;;;;;;20.10;11.27;;;;;;;10.32;79.92;101301.47;5049348;28;20036;-74
2022/06/01 06:00:00;;;;;;;18.23;11.05;;;;;;;10.37;80.00;101304.84;5049752;28;20043;-74
2022/06/01 06:02:26;;;;;;;17.08;10.45;;;;;;;10.40;79.93;101303.97;5050739;28;20127;-74
2022/06/01 06:04:51;;;;;;;16.60;10.70;;;;;;;10.45;80.06;101305.59;5049394;28;20416;-74
2022/06/01 06:07:16;;;;;;;15.88;10.57;;;;;;;10.50;79.72;101310.75;5049567;28;20025;-74
2022/06/01 06:09:42;;;;;;;14.57;10.65;;;;;;;10.56;79.78;101309.78;5047038;28;20618;-74
2022/06/01 06:12:08;;;;;;;17.13;10.60;;;;;;;10.60;79.63;101316.59;5053533;28;20039;-74
2022/06/01 06:14:33;;;;;;;14.50;9.60;;;;;;;10.63;79.66;101314.81;5044382;28;20043;-74
2022/06/01 06:16:59;;;;;;;14.10;9.98;;;;;;;10.67;79.83;101318.22;5045724;28;20111;-74
2022/06/01 06:19:24;;;;;;;14.05;9.23;;;;;;;10.71;79.27;101316.41;5051372;28;20024;-74
2022/06/01 06:21:49;;;;;;;13.18;9.35;;;;;;;10.76;79.63;101323.25;5051256;28;20414;-74
2022/06/01 06:24:18;;;;;;;16.67;10.13;;;;;;;10.81;79.38;101315.38;5049241;28;20446;-75
2022/06/01 06:26:44;;;;;;;14.05;9.43;;;;;;;10.86;79.20;101325.69;5049365;28;20046;-74
2022/06/01 06:29:11;;;;;;;13.70;9.70;;;;;;;10.89;80.06;101320.44;5050914;28;20029;-74
2022/06/01 06:31:38;;;;;;;17.13;9.95;;;;;;;10.93;79.61;101322.09;5051386;28;20040;-74
2022/06/01 06:34:03;;;;;;;16.13;9.40;;;;;;;10.98;79.91;101319.38;5048205;28;20040;-74
2022/06/01 06:36:29;;;;;;;12.30;8.98;;;;;;;11.04;79.60;101321.84;5048712;28;20022;-74
2022/06/01 06:38:54;;;;;;;11.68;9.05;;;;;;;11.11;80.66;101328.66;5050848;28;20025;-74
2022/06/01 06:41:21;;;;;;;12.85;8.98;;;;;;;11.15;79.08;101324.25;5051312;28;20025;-74
2022/06/01 06:43:47;;;;;;;14.15;9.00;;;;;;;11.20;80.44;101322.41;5050195;28;20147;-74
2022/06/01 06:46:15;;;;;;;11.70;8.70;;;;;;;11.25;80.00;101331.00;5049853;28;20112;-74
2022/06/01 06:48:43;;;;;;;15.68;8.90;;;;;;;11.30;80.10;101334.34;5048973;28;20025;-74
2022/06/01 06:51:09;;;;;;;14.57;8.63;;;;;;;11.35;80.12;101335.13;5049949;28;20025;-74
2022/06/01 06:53:34;;;;;;;12.30;8.50;;;;;;;11.42;79.50;101342.81;5050841;28;20172;-74
2022/06/01 06:56:00;;;;;;;14.25;8.35;;;;;;;11.47;80.21;101341.81;5051041;28;20028;-74
2022/06/01 06:58:26;;;;;;;11.07;7.88;;;;;;;11.53;78.71;101346.03;5051057;28;20021;-74
2022/06/01 07:00:51;;;;;;;10.55;7.93;;;;;;;11.59;79.35;101348.53;5050571;28;20380;-74
2022/06/01 07:03:16;;;;;;;13.52;7.53;;;;;;;11.64;78.81;101346.66;5048211;28;20491;-75
2022/06/01 07:08:27;;;;;;;11.77;6.90;;;;;;;11.77;77.49;101357.66;5049127;28;20043;-74
2022/06/01 07:10:53;;;;;;;11.93;6.82;;;;;;;11.83;78.14;101354.06;5045203;28;20025;-74
2022/06/01 07:13:19;;;;;;;11.07;7.05;;;;;;;11.90;78.01;101352.16;5053341;28;20020;-75
2022/06/01 07:15:45;;;;;;;9.98;6.47;;;;;;;11.93;75.80;101352.97;5050337;28;20029;-74
2022/06/01 07:18:10;;;;;;;10.55;6.25;;;;;;;11.97;75.79;101358.97;5053438;28;20033;-74
2022/06/01 07:20:35;;;;;;;11.52;5.53;;;;;;;12.00;75.75;101356.31;5050447;28;20032;-75
2022/06/01 07:23:01;;;;;;;9.15;6.38;;;;;;;12.07;76.08;101349.22;5055310;28;20033;-74
2022/06/01 07:25:28;;;;;;;9.07;6.28;;;;;;;12.14;76.82;101361.19;5053942;28;20100;-74
2022/06/01 07:27:54;;;;;;;10.25;6.80;;;;;;;12.19;76.29;101359.34;5051391;28;20021;-74
2022/06/01 07:30:20;;;;;;;9.43;5.90;;;;;;;12.20;75.21;101355.84;5054106;28;20024;-74
2022/06/01 07:32:46;;;;;;;9.55;6.43;;;;;;;12.27;76.23;101353.94;5050343;28;20074;-74
2022/06/01 07:35:12;;;;;;;8.90;6.35;;;;;;;12.36;75.50;101356.34;5052380;28;20025;-74
2022/06/01 07:43:06;;;;;;;8.40;5.38;;;;;;;12.65;72.54;101359.06;5047615;28;20364;-74
2022/06/01 07:45:38;;;;;;;9.15;5.28;;;;;;;12.68;73.64;101365.09;5048781;28;20017;-75
2022/06/01 07:48:04;;;;;;;;;;;;;;;12.72;73.80;101355.41;5048822;28;20021;-74
2022/06/01 07:50:29;;;;;;;8.15;4.53;;;;;;;12.75;71.24;101356.19;5048793;28;19927;-74
2022/06/01 07:52:54;;;;;;;7.28;4.65;;;;;;;12.79;69.56;101361.31;5049669;28;20025;-74
2022/06/01 07:55:20;;;;;;;6.88;5.47;;;;;;;12.87;70.31;101364.59;5048564;28;20052;-74
2022/06/01 07:57:45;;;;;;;7.78;5.70;;;;;;;12.93;71.24;101359.19;5047219;28;20025;-75
2022/06/01 08:00:11;;;;;;;8.38;5.22;;;;;;;13.01;69.65;101361.59;5047715;28;20032;-74
2022/06/01 08:02:38;;;;;;;9.35;5.18;;;;;;;13.08;70.25;101355.31;5046821;28;20504;-74
2022/06/01 08:05:05;;;;;;;9.43;5.80;;;;;;;13.20;70.37;101360.19;5047815;28;20027;-74
2022/06/01 08:07:30;;;;;;;10.40;4.97;;;;;;;13.34;71.49;101361.53;5046807;28;20021;-75
2022/06/01 08:09:56;;;;;;;6.82;5.32;;;;;;;13.40;67.81;101364.00;5046388;28;20472;-74
2022/06/01 08:15:06;;;;;;;7.90;5.75;;;;;;;13.55;69.89;101361.84;5045432;28;20036;-74
2022/06/01 08:17:31;;;;;;;7.68;5.80;;;;;;;13.58;68.70;101366.97;5047843;28;20020;-74
2022/06/01 08:19:56;;;;;;;13.63;5.97;;;;;;;13.60;67.69;101370.41;5047227;28;20083;-74
2022/06/01 08:22:22;;;;;;;9.60;6.13;;;;;;;13.66;67.39;101375.47;5045454;28;20025;-74
2022/06/01 08:24:47;;;;;;;9.27;6.03;;;;;;;13.78;65.50;101377.69;5047060;28;20041;-74
2022/06/01 08:27:13;;;;;;;11.35;5.43;;;;;;;13.88;65.78;101372.16;5047230;28;20025;-74
2022/06/01 08:29:38;;;;;;;7.50;5.05;;;;;;;13.93;64.26;101367.66;5046961;28;20052;-75
2022/06/01 08:32:04;;;;;;;9.30;5.10;;;;;;;14.02;64.57;101371.75;5046000;28;20071;-75
2022/06/01 08:34:30;;;;;;;6.97;5.10;;;;;;;14.13;65.40;101367.03;5046818;28;20025;-75
2022/06/01 08:36:55;;;;;;;8.05;5.85;;;;;;;14.21;65.94;101364.16;5048620;28;20048;-75
2022/06/01 08:39:20;;;;;;;7.68;5.30;;;;;;;14.29;63.71;101364.78;5047155;28;20064;-75
2022/06/01 08:41:46;;;;;;;8.20;5.15;;;;;;;14.38;64.56;101364.44;5045880;28;20025;-75
2022/06/01 08:44:31;;;;;;;7.22;4.95;;;;;;;14.40;64.85;101352.16;5045181;28;20024;-75
2022/06/01 08:47:02;;;;;;;6.80;4.85;;;;;;;14.38;61.62;101366.22;5046538;28;20021;-75
2022/06/01 08:49:30;;;;;;;6.70;5.20;;;;;;;14.41;62.58;101363.50;5047897;28;20092;-75
2022/06/01 08:51:56;;;;;;;8.80;5.68;;;;;;;14.51;64.51;101364.06;5045741;28;20164;-74
2022/06/01 08:54:22;;;;;;;10.65;5.57;;;;;;;14.61;62.64;101354.97;5046743;28;20040;-75
2022/06/01 08:56:59;;;;;;;7.22;5.43;;;;;;;14.76;63.11;101355.38;5046471;28;20518;-75
2022/06/01 08:59:47;;;;;;;7.97;5.43;;;;;;;14.85;63.90;101352.44;5047297;28;20024;-75
2022/06/01 09:02:33;;;;;;;7.78;4.28;;;;;;;14.95;60.61;101368.66;5045375;28;20052;-75
2022/06/01 09:05:23;;;;;;;6.95;3.70;;;;;;;14.99;61.25;101365.03;5046837;28;20060;-75
2022/06/01 09:07:52;;;;;;;7.95;4.00;;;;;;;14.98;59.03;101369.44;5043817;28;20083;-75
2022/06/01 09:10:41;;;;;;;5.15;4.10;;;;;;;14.95;57.06;101379.16;5047584;28;20025;-75
2022/06/01 09:13:11;;;;;;;8.63;3.72;;;;;;;14.92;57.43;101380.13;5047361;28;20036;-74
2022/06/01 09:15:45;;;;;;;7.10;3.70;;;;;;;14.97;58.13;101370.34;5049478;28;20028;-74
2022/06/01 09:18:12;;;;;;;5.45;3.90;;;;;;;15.09;57.28;101370.81;5046922;28;20056;-75
2022/06/01 09:23:22;;;;;;;6.18;3.40;;;;;;;15.10;57.17;101362.03;5047147;28;20028;-75
2022/06/01 09:25:51;;;;;;;7.00;3.20;;;;;;;15.08;54.91;101369.97;5045922;28;20505;-75
2022/06/01 09:28:29;;;;;;;4.78;3.30;;;;;;;15.01;57.51;101369.31;5045299;28;20432;-74
2022/06/01 09:30:57;;;;;;;5.50;3.42;;;;;;;14.89;55.72;101372.38;5044570;28;20032;-75
2022/06/01 09:33:24;;;;;;;4.57;3.83;;;;;;;14.80;55.02;101378.78;5051237;28;20166;-75
2022/06/01 09:36:06;;;;;;;5.68;3.58;;;;;;;14.69;57.37;101375.69;5046346;28;20112;-75
2022/06/01 09:38:40;;;;;;;7.18;3.85;;;;;;;14.59;57.80;101382.13;5055811;28;20059;-74
2022/06/01 09:41:09;;;;;;;6.93;4.10;;;;;;;14.47;57.14;101383.38;5051538;28;20068;-75
2022/06/01 09:43:39;;;;;;;6.38;3.83;;;;;;;14.38;59.29;101389.78;5050805;28;20105;-75
2022/06/01 09:46:05;;;;;;;6.85;4.05;;;;;;;14.30;61.05;101395.28;5051491;28;20072;-75
2022/06/01 09:48:44;;;;;;;5.00;3.85;;;;;;;14.20;61.55;101410.41;5051528;28;20025;-75
2022/06/01 09:51:18;;;;;;;6.85;4.38;;;;;;;13.95;63.95;101420.78;5050481;28;20487;-75
2022/06/01 09:53:47;;;;;;;5.38;3.28;;;;;;;13.64;63.93;101419.94;5052950;28;20024;-75
2022/06/01 09:56:33;;;;;;;3.33;2.67;;;;;;;13.30;64.63;101404.34;5049245;28;20029;-75
2022/06/01 10:07:26;;;;;;;3.53;2.40;;;;;;;12.78;67.22;101410.09;5045477;28;20044;-75
2022/06/01 10:09:54;;;;;;;4.10;2.72;;;;;;;12.78;68.46;101407.47;5044109;28;20063;-75
2022/06/01 10:12:28;;;;;;;4.28;2.40;;;;;;;12.80;68.86;101403.06;5044561;28;20040;-75
2022/06/01 10:14:55;;;;;;;4.18;2.40;;;;;;;12.85;68.82;101409.00;5044594;28;20032;-75
2022/06/01 10:17:36;;;;;;;5.15;2.47;;;;;;;12.83;68.15;101413.41;5045920;28;20153;-75
2022/06/01 10:20:26;;;;;;;2.58;2.38;;;;;;;12.82;68.12;101426.53;5044523;28;20533;-75
2022/06/01 10:23:10;;;;;;;10.02;2.80;;;;;;;12.77;70.31;101436.22;5043844;28;20064;-76
2022/06/01 10:25:50;;;;;;;6.75;2.55;;;;;;;12.75;69.41;101452.78;5043987;28;20041;-76
2022/06/01 10:28:39;;;;;;;7.45;2.75;;;;;;;12.71;68.53;101461.59;5045535;28;20503;-77
2022/06/01 10:31:13;;;;;;;9.80;3.70;;;;;;;12.62;70.10;101472.25;5046116;28;20502;-76
2022/06/01 10:33:47;;;;;;;9.98;4.20;;;;;;;12.48;70.39;101472.56;5045050;28;20488;-76
2022/06/01 10:36:23;;;;;;;5.93;3.95;;;;;;;12.34;71.61;101480.75;5046748;28;20029;-76
2022/06/01 10:39:01;;;;;;;5.85;3.90;;;;;;;12.25;70.79;101476.59;5049037;28;20024;-76
2022/06/01 10:41:39;;;;;;;5.32;4.00;;;;;;;12.25;71.09;101470.50;5050429;28;20033;-76
2022/06/01 10:44:18;;;;;;;6.53;3.95;;;;;;;12.29;71.48;101464.31;5044521;28;20027;-76
2022/06/01 10:47:18;;;;;;;6.72;3.70;;;;;;;12.32;70.86;101463.38;5048160;28;20026;-75
2022/06/01 10:49:54;;;;;;;6.72;3.80;;;;;;;12.32;69.47;101466.00;5052238;28;20037;-76
2022/06/01 10:52:37;;;;;;;5.70;4.18;;;;;;;12.31;70.81;101478.19;5047560;28;20032;-75
2022/06/01 10:55:06;;;;;;;8.43;4.30;;;;;;;12.26;70.38;101467.88;5052280;28;20475;-76
2022/06/01 10:57:36;;;;;;;7.30;4.57;;;;;;;12.27;70.04;101468.72;5048940;28;20638;-76
2022/06/01 11:00:04;;;;;;;4.13;3.30;;;;;;;12.26;68.66;101465.25;5049261;28;20075;-77
2022/06/01 11:02:51;;;;;;;6.15;3.38;;;;;;;12.32;69.69;101453.81;5051554;28;20062;-75
2022/06/01 11:05:58;;;;;;;5.20;2.90;;;;;;;12.44;69.45;101439.66;5049850;28;20029;-75
2022/06/01 11:08:25;;;;;;;3.30;2.50;;;;;;;12.58;70.16;101440.16;5038187;28;20074;-75
2022/06/01 11:11:03;;;;;;;4.38;2.70;;;;;;;12.73;69.94;101438.06;5048341;28;20048;-75
2022/06/01 11:13:46;;;;;;;3.08;2.33;;;;;;;12.87;68.89;101429.88;5042210;28;20044;-75
2022/06/01 11:16:38;;;;;;;5.20;2.40;;;;;;;13.01;69.48;101429.50;5044522;28;20025;-75
2022/06/01 11:19:41;;;;;;;4.60;2.22;;;;;;;13.17;69.31;101436.03;5045717;28;20388;-75
2022/06/01 11:22:12;;;;;;;8.63;2.33;;;;;;;13.35;69.53;101444.25;5046303;28;20115;-76
2022/06/01 11:24:50;;;;;;;5.68;2.20;;;;;;;13.56;70.34;101439.38;5046393;28;20067;-75
2022/06/01 11:27:27;;;;;;;4.05;2.22;;;;;;;13.77;71.53;101441.38;5046025;28;20111;-75
2022/06/01 11:30:18;;;;;;;3.92;2.53;;;;;;;13.93;67.72;101443.53;5064960;28;20037;-75
2022/06/01 11:33:03;;;;;;;8.52;2.55;;;;;;;14.00;67.78;101444.19;5047250;28;20024;-75
2022/06/01 11:35:39;;;;;;;3.60;3.08;;;;;;;14.02;65.80;101448.47;5045163;28;20025;-74
2022/06/01 11:38:16;;;;;;;4.95;3.72;;;;;;;14.00;68.59;101445.06;5047600;28;20045;-75
2022/06/01 11:40:52;;;;;;;9.68;4.20;;;;;;;14.04;69.60;101441.44;5046189;28;20029;-75
2022/06/01 11:43:21;;;;;;;5.47;4.30;;;;;;;14.07;66.97;101445.72;5046025;28;20033;-75
2022/06/01 11:45:59;;;;;;;5.55;4.50;;;;;;;14.08;66.85;101444.81;5044167;28;20040;-75
2022/06/01 11:48:30;;;;;;;6.05;4.70;;;;;;;14.08;68.44;101443.06;5046118;28;20029;-75
2022/06/01 11:51:01;;;;;;;7.63;4.63;;;;;;;14.16;69.97;101444.59;5045874;28;20029;-75
2022/06/01 11:54:00;;;;;;;7.80;5.20;;;;;;;14.23;68.40;101448.72;5046391;28;20383;-75
2022/06/01 11:56:30;;;;;;;5.30;4.30;;;;;;;14.22;67.87;101452.22;5047742;28;20087;-75
2022/06/01 11:58:58;;;;;;;7.70;4.90;;;;;;;14.28;68.34;101449.44;5044331;28;20472;-74